Tiempo atmosférico en la estación meteorológica de Gran Canaria Aeropuerto, Las Palmas (24 m.)



Fecha
DESCASC
Temp. máxima en grados centígrados (hora)
DESCASC
Temp. mínima en grados centígrados (hora)
DESCASC
Temp. media en grados centígrados
DESCASC
Racha de viento máxima en m/sg (hora)
DESCASC
Velocidad máxima media en intervalos de 10 minutos(hora)
DESCASC
Precipitaciones diarias en mm
DESCASC
Precipitaciones de 00:00 a 06:00 en mm
DESCASC
Precipitaciones de 06:00 a 12:00 en mm
DESCASC
Precipitaciones de 12:00 a 18:00 en mm
DESCASC
Precipitaciones de 18:00 a 24:00 en mm
DESCASC
12-07-2018 25.8 (14:10) 20.8 (02:00) 23.3 18.06 (14:20) 14.17 (14:00) 0 0 0 0 0
11-07-2018 25.7 (15:10) 20.8 (06:20) 23.3 20 (14:10) 13.61 (14:10) 0 0 0 0 0
10-07-2018 34.4 (15:40) 21.5 (23:20) 28 18.06 (23:00) 12.22 (15:50) 0 0 0 0 0
09-07-2018 26.1 (13:30) 19.8 (06:40) 22.9 16.11 (18:40) 12.5 (16:50) 0 0 0 0 0
08-07-2018 25.4 (14:20) 20.1 (04:00) 22.8 15 (12:00) 12.22 (12:00) 0 0 0 0 0
07-07-2018 26.2 (15:10) 19.9 (00:00) 23.1 16.94 (16:50) 12.5 (15:40) 0 0 0 0 0
06-07-2018 25.4 (15:20) 20.4 (00:00) 22.9 18.61 (15:20) 14.17 (17:10) 0 0 0 0 0
05-07-2018 -- (--) -- (--) -- -- (--) -- (--) -- 0 0 0 --
04-07-2018 25 (14:40) 20.5 (07:20) 22.8 18.06 (16:30) 13.33 (12:30) 0 0 0 0 0
03-07-2018 25.8 (15:20) 20.2 (03:50) 23 18.06 (12:50) 13.61 (14:30) 0 0 0 0 0
02-07-2018 26 (16:40) 19.8 (07:00) 22.9 15.28 (15:40) 12.5 (17:00) 0 0 0 0 0
01-07-2018 25.2 (14:50) 18.7 (00:00) 22 14.44 (17:30) 11.67 (17:20) 0 0 0 0 0
30-06-2018 25.8 (15:40) 20.3 (07:50) 23 13.89 (15:00) 10.83 (15:10) 0 0 0 0 0
29-06-2018 27.3 (14:30) 18.6 (00:00) 22.9 12.5 (14:40) 8.61 (20:10) 0 0 0 0 0
28-06-2018 27.4 (15:40) 20.1 (00:00) 23.8 17.5 (13:30) 14.17 (15:10) 0 0 0 0 0
27-06-2018 25.7 (16:20) 19.3 (00:00) 22.5 16.94 (14:20) 14.17 (14:50) 0 0 0 0 0
26-06-2018 25.8 (15:20) 19.3 (00:00) 22.5 16.11 (13:40) 11.11 (15:30) 0 0 0 0 0
25-06-2018 26.1 (17:00) 18.3 (00:00) 22.2 11.39 (17:30) 8.61 (17:30) 0 0 0 0 0
24-06-2018 24.8 (14:30) 18.1 (00:00) 21.4 11.67 (11:00) 10 (11:50) 0 0 0 0 0
23-06-2018 24.8 (13:10) 19.2 (00:00) 22 14.44 (12:20) 11.67 (12:10) 0 0 0 0 0
22-06-2018 25.3 (15:00) 19.7 (23:59) 22.5 16.94 (16:30) 11.94 (16:30) 0 0 0 0 0
21-06-2018 25.2 (14:10) 19.5 (00:00) 22.4 17.5 (14:40) 13.89 (15:00) 0 0 0 0 0
20-06-2018 25.5 (13:00) 19.5 (00:00) 22.5 16.94 (13:30) 13.33 (15:50) 0 0 0 0 0
19-06-2018 25.2 (13:30) 17.4 (00:00) 21.3 12.78 (15:40) 9.72 (13:40) 0 0 0 0 0
18-06-2018 24.5 (17:20) 18.3 (00:00) 21.4 14.44 (16:30) 12.78 (16:30) 0 0 0 0 0
17-06-2018 25 (16:30) 18.5 (00:00) 21.8 16.11 (13:40) 12.5 (16:40) 0 0 0 0 0
16-06-2018 24.5 (13:50) 18.3 (00:00) 21.4 17.5 (13:30) 13.33 (16:30) 0 0 0 0 0

Gráficas

Temp. máximas Temp. mínimas Temp. medias Precipitaciones Rachas de viento máximas Velocidades máximas media en intervalos de 10 minutos

Datos horarios

Fecha y hora oficial Temperatura (ºC) Velocidad del viento (km/h) Dirección del viento Racha (km/h) Dirección de racha Precipitación (mm) Presión (hPa) Tendencia (hPa) Humedad (%)
2018-07-15 23:00:00 21 31 Norte 46 Norte 0 1016.3 1.3 73
2018-07-15 22:00:00 21.1 29 Norte 46 Norte 0 1016 1.2 72
2018-07-15 21:00:00 21.5 30 Norte 54 Norte 0 1015.5 0.6 71
2018-07-15 20:00:00 22.5 39 Norte 55 Norte 0 1015 -0.3 67
2018-07-15 19:00:00 23.3 37 Norte 61 Norte 0 1014.8 -0.9 62
2018-07-15 18:00:00 24.1 41 Norte 61 Norte 0 1014.9 -1.2 59
2018-07-15 17:00:00 24.5 33 Norte 59 Norte 0 1015.3 -1 58
2018-07-15 16:00:00 24.6 40 Norte 68 Norte 0 1015.7 -0.7 57
2018-07-15 15:00:00 24.7 39 Norte 67 Norte 0 1016.1 -0.3 56
2018-07-15 14:00:00 24.5 36 Norte 61 Norte 0 1016.3 0.2 57
2018-07-15 13:00:00 24.3 40 Norte 65 Norte 0 1016.4 0.5 56
2018-07-15 12:00:00 24 44 Norte 59 Norte 0 1016.4 1.2 57
2018-07-15 11:00:00 23.3 37 Norte 59 Norte 0 1016.1 1.1 63
2018-07-15 10:00:00 22.3 34 Norte 59 Norte 0 1015.9 0.9 64
2018-07-15 09:00:00 21.4 30 Norte 50 Norte 0 1015.2 0.5 69
2018-07-15 08:00:00 20.4 28 Norte 48 Norte 0 1015 0.4 74
2018-07-15 07:00:00 20.4 26 Norte 46 Norte 0 1015 0.4 72
2018-07-15 06:00:00 20.5 24 Norte 45 Norte 0 1014.7 -0.4 68
2018-07-15 05:00:00 20.8 26 Norte 45 Norte 0 1014.6 -1.4 64
2018-07-15 04:00:00 21.1 26 Norte 41 Norte 0 1014.6 -1.9 61
2018-07-15 03:00:00 21 24 Norte 41 Norte 0 1015.1 -1.5 62
2018-07-15 02:00:00 20.7 26 Norte 42 Norte 0 1016 -0.3 68
2018-07-15 01:00:00 20.7 21 Norte 39 Norte 0 1016.5 0.5 69
2018-07-15 00:00:00 21 22 Norte 42 Norte 0 1016.6 1 72
2018-07-14 23:00:00 21.1 26 Norte 41 Norte 0 1016.3 1.1 71
2018-07-14 22:00:00 21.4 26 Norte 41 Norte 0 1016 1.1 69
2018-07-14 21:00:00 21.7 25 Norte 39 Norte 0 1015.6 0.7 70
2018-07-14 20:00:00 22.7 26 Norte 48 Norte 0 1015.2 0.4 65
2018-07-14 19:00:00 23.5 31 Norte 52 Norte 0 1014.9 -0.1 58
2018-07-14 18:00:00 24.4 38 Norte 52 Norte 0 1014.9 0.1 58
2018-07-14 17:00:00 25.1 38 Norte 58 Norte 0 1014.8 -0.6 56
2018-07-14 16:00:00 25.4 47 Norte 58 Norte 0 1015 -0.5 58
2018-07-14 15:00:00 25.6 45 Norte 58 Norte 0 1014.8 -0.8 54
2018-07-14 14:00:00 24.9 37 Norte 55 Norte 0 1015.4 0 55
2018-07-14 13:00:00 25.2 35 Norte 52 Norte 0 1015.5 0.8 50
2018-07-14 12:00:00 24.7 30 Norte 48 Norte 0 1015.6 1 51
2018-07-14 11:00:00 24 27 Norte 45 Norte 0 1015.4 1.2 55
2018-07-14 10:00:00 22.5 30 Norte 42 Norte 0 1014.7 0.7 61
2018-07-14 09:00:00 21.3 28 Norte 41 Norte 0 1014.6 0.7 69
2018-07-14 08:00:00 20.1 20 Norte 35 Norte 0 1014.2 0.3 78
2018-07-14 07:00:00 20.1 23 Norte 35 Norte 0 1014 0.1 79
2018-07-14 06:00:00 20.2 21 Norte 35 Norte 0 1013.9 -0.2 72
2018-07-14 05:00:00 20 19 Norte 32 Norte 0 1013.9 -1.2 73
2018-07-14 04:00:00 20.4 20 Norte 33 Norte 0 1013.9 -1.5 70
2018-07-14 03:00:00 20.5 20 Norte 37 Noroeste 0 1014.1 -1.3 68
2018-07-14 02:00:00 20.6 18 Norte 32 Norte 0 1015.1 0.2 68
2018-07-14 01:00:00 20.7 15 Norte 32 Norte 0 1015.4 1.2 66
2018-07-14 00:00:00 21 18 Norte 32 Norte 0 1015.4 2 63
2018-07-13 23:00:00 21.4 20 Norte 32 Norte 0 1014.9 1.8 60
2018-07-13 22:00:00 21.6 21 Norte 39 Norte 0 1014.2 1.3 60
2018-07-13 21:00:00 22 23 Norte 41 Norte 0 1013.4 0.8 64
2018-07-13 20:00:00 22.6 29 Norte 42 Norte 0 1013.1 0 64
2018-07-13 19:00:00 23.7 30 Norte 52 Norte 0 1012.9 -0.2 61
2018-07-13 18:00:00 24.3 35 Norte 52 Norte 0 1012.6 -1.3 58
2018-07-13 17:00:00 24.1 31 Norte 50 Norte 0 1013.1 -1.4 55
2018-07-13 16:00:00 24.7 36 Norte 50 Norte 0 1013.1 -1.9 54
2018-07-13 15:00:00 25.2 38 Norte 55 Norte 0 1013.9 -0.4 54
2018-07-13 14:00:00 24.9 40 Norte 50 Nordeste 0 1014.5 0.6 60
2018-07-13 13:00:00 24.4 30 Norte 61 Norte 0 1015 1.4 55
2018-07-13 12:00:00 24.3 39 Norte 55 Norte 0 1014.3 0.3 58
2018-07-13 11:00:00 22.9 35 Norte 50 Norte 0 1013.9 0.5 60
2018-07-13 10:00:00 22.1 29 Norte 48 Norte 0 1013.6 0.4 68
2018-07-13 09:00:00 21.3 27 Norte 45 Norte 0 1014 1 71
2018-07-13 08:00:00 20.2 26 Norte 41 Norte 0 1013.4 0.4 78
2018-07-13 07:00:00 20.1 25 Norte 42 Norte 0 1013.2 -0.1 78
2018-07-13 06:00:00 20.3 24 Norte 37 Norte 0 1013 -0.7 73
2018-07-13 05:00:00 20.3 21 Norte 41 Norte 0 1013 -1.1 74
2018-07-13 04:00:00 20.8 23 Norte 37 Norte 0 1013.3 -1.4 72
2018-07-13 03:00:00 20.6 26 Norte 41 Norte 0 1013.7 -0.9 74
2018-07-13 02:00:00 21.2 26 Norte 39 Norte 0 1014.1 -0.2 73
2018-07-13 01:00:00 21 20 Norte 42 Norte 0 1014.7 0.8 68
2018-07-13 00:00:00 21.2 24 Norte 46 Norte 0 1014.6 1.2 66
2018-07-12 23:00:00 21.2 26 Norte 48 Norte 0 1014.3 1.3 69
2018-07-12 22:00:00 21.6 30 Norte 46 Norte 0 1013.9 1.2 70
2018-07-12 21:00:00 21.8 29 Norte 46 Norte 0 1013.4 0.1 69
2018-07-12 20:00:00 22.7 31 Norte 52 Norte 0 1013 -0.8 61
2018-07-12 19:00:00 23.5 36 Norte 55 Norte 0 1012.7 -0.8 58
2018-07-12 18:00:00 23.6 36 Norte 58 Norte 0 1013.3 -0.6 56
2018-07-12 17:00:00 24.7 44 Norte 61 Norte 0 1013.8 -0.6 56
2018-07-12 16:00:00 25.1 46 Norte 63 Norte 0 1013.5 -1.3 56
2018-07-12 15:00:00 25.4 48 Norte 65 Norte 0 1013.9 -0.6 53
2018-07-12 14:00:00 25.4 51 Norte 63 Norte 0 1014.4 -0.5 55
2018-07-12 13:00:00 24.6 42 Norte 61 Norte 0 1014.8 -0.1 58
2018-07-12 12:00:00 24.1 37 Norte 61 Norte 0 1014.5 -0.2 58
2018-07-12 11:00:00 23.5 39 Norte 58 Norte 0 1014.9 0.7 60
2018-07-12 10:00:00 22.7 36 Norte 54 Norte 0 1014.9 0.9 65
2018-07-12 09:00:00 22 27 Norte 52 Norte 0 1014.7 1.2 66
2018-07-12 08:00:00 21.2 32 Norte 50 Norte 0 1014.2 0.4 72
2018-07-12 07:00:00 20.9 26 Norte 50 Norte 0 1014 0.3 74
2018-07-12 06:00:00 20.8 29 Norte 42 Norte 0 1013.5 -0.6 76
2018-07-12 05:00:00 20.8 28 Norte 46 Norte 0 1013.8 -0.6 76
2018-07-12 04:00:00 20.9 28 Norte 48 Norte 0 1013.7 -0.9 76
2018-07-12 03:00:00 20.8 26 Norte 41 Norte 0 1014.1 -0.8 74
2018-07-12 02:00:00 20.8 24 Norte 41 Norte 0 1014.4 0 74
2018-07-12 01:00:00 21.1 23 Norte 46 Norte 0 1014.6 0.2 72
2018-07-12 00:00:00 21.4 27 Norte 48 Norte 0 1014.9 1.1 70
2018-07-11 23:00:00 21.2 29 Norte 50 Norte 0 1014.4 0.8 75
2018-07-11 22:00:00 21.6 32 Norte 54 Norte 0 1014.4 1.5 72
2018-07-11 21:00:00 21.7 34 Norte 55 Norte 0 1013.8 0.9 74
2018-07-11 20:00:00 22.5 36 Norte 55 Norte 0 1013.6 0.5 71
2018-07-11 19:00:00 23.8 36 Norte 55 Norte 0 1012.9 -0.7 66
2018-07-11 18:00:00 24.1 35 Norte 59 Norte 0 1012.9 -0.7 65
2018-07-11 17:00:00 24.8 42 Norte 59 Norte 0 1013.1 -0.6 65
2018-07-11 16:00:00 25.2 44 Norte 63 Norte 0 1013.6 -0.4 64
2018-07-11 15:00:00 25.2 40 Norte 72 Norte 0 1013.6 -0.6 64
2018-07-11 14:00:00 25.1 47 Norte 65 Norte 0 1013.7 -0.3 65
2018-07-11 13:00:00 24.5 41 Norte 65 Norte 0 1014 0.2 65
2018-07-11 12:00:00 24 41 Norte 67 Norte 0 1014.2 0.7 68
2018-07-11 11:00:00 23.5 41 Norte 63 Norte 0 1014 0.9 69
2018-07-11 10:00:00 22.4 40 Norte 61 Norte 0 1013.8 0.8 73
2018-07-11 09:00:00 21.5 32 Norte 52 Norte 0 1013.5 0.9 77
2018-07-11 08:00:00 20.9 37 Norte 54 Norte 0 1013.1 1.2 81
2018-07-11 07:00:00 20.8 32 Norte 48 Norte 0 1013 1.2 81
2018-07-11 06:00:00 20.9 32 Norte 54 Norte 0 1012.6 0.6 80
2018-07-11 05:00:00 21 33 Norte 52 Norte 0 1011.9 -0.6 81
2018-07-11 04:00:00 21.4 32 Norte 52 Norte 0 1011.8 -1.3 76
2018-07-11 03:00:00 21.7 33 Norte 50 Norte 0 1012 -1.4 71
2018-07-11 02:00:00 21.5 35 Norte 50 Norte 0 1012.5 -0.7 73
2018-07-11 01:00:00 21.4 36 Norte 55 Norte 0 1013.1 0.7 78
2018-07-11 00:00:00 21.5 35 Norte 58 Norte 0 1013.4 1.4 78
2018-07-10 23:00:00 21.6 40 Norte 65 Norte 0 1013.2 1.4 77
2018-07-10 22:00:00 22 37 Norte 58 Norte 0 1012.4 0.8 77
2018-07-10 21:00:00 22.8 32 Norte 54 Norte 0 1012 0.7 73
2018-07-10 20:00:00 23.4 39 Norte 55 Norte 0 1011.8 0.3 74
2018-07-10 19:00:00 25.1 33 Norte 54 Norte 0 1011.6 -0.2 67
2018-07-10 18:00:00 28.4 35 Norte 54 Norte 0 1011.3 -0.9 47
2018-07-10 17:00:00 30.1 37 Norte 55 Norte 0 1011.5 -1 37
2018-07-10 16:00:00 31.4 44 Norte 52 Norte 0 1011.8 -1 33
2018-07-10 15:00:00 33.5 31 Norte 48 Norte 0 1012.2 -1 21
2018-07-10 14:00:00 32.5 32 Norte 46 Norte 0 1012.5 -0.7 24
2018-07-10 13:00:00 32.5 30 Norte 45 Norte 0 1012.8 0.1 23
2018-07-10 12:00:00 31 32 Norte 46 Norte 0 1013.2 1.5 28
2018-07-10 11:00:00 27.4 37 Norte 48 Norte 0 1013.2 2.1 52
2018-07-10 10:00:00 24.6 40 Norte 52 Nordeste 0 1012.7 2.1 62
2018-07-10 09:00:00 26.1 34 Norte 50 Norte 0 1011.7 1.2 38
2018-07-10 08:00:00 26 37 Norte 48 Norte 0 1011.1 0.5 31
2018-07-10 07:00:00 25.5 31 Norte 45 Norte 0 1010.6 -0.2 34
2018-07-10 06:00:00 24.6 29 Norte 50 Norte 0 1010.5 -0.6 40
2018-07-10 05:00:00 24.3 28 Norte 46 Norte 0 1010.6 -1.3 41
2018-07-10 04:00:00 25.5 32 Norte 46 Norte 0 1010.8 -1.4 34
2018-07-10 03:00:00 24.3 30 Norte 45 Norte 0 1011.1 -1.5 47
2018-07-10 02:00:00 25.1 30 Norte 50 Norte 0 1011.9 -1 43
2018-07-10 01:00:00 22.7 26 Norte 41 Norte 0 1012.2 -0.4 63
2018-07-10 00:00:00 22 26 Norte 45 Norte 0 1012.6 0.3 73
2018-07-09 23:00:00 22 26 Norte 42 Norte 0 1012.9 0.9 76
2018-07-09 22:00:00 21.7 30 Norte 46 Norte 0 1012.6 0.8 78
2018-07-09 21:00:00 21.9 30 Norte 50 Norte 0 1012.3 0.3 79
2018-07-09 20:00:00 22.4 32 Norte 55 Norte 0 1012 -0.1 78
2018-07-09 19:00:00 23.2 37 Norte 58 Norte 0 1011.8 -0.1 74
2018-07-09 18:00:00 24.4 44 Norte 54 Norte 0 1012 0.1 70
2018-07-09 17:00:00 25.2 38 Norte 54 Norte 0 1012.1 0.1 66
2018-07-09 16:00:00 25.6 38 Norte 54 Norte 0 1011.9 -0.5 64
2018-07-09 15:00:00 25.5 42 Norte 54 Norte 0 1011.9 -0.7 65
2018-07-09 14:00:00 25.9 42 Norte 54 Norte 0 1012 -0.7 63
2018-07-09 13:00:00 25.7 35 Norte 48 Norte 0 1012.4 0 63
2018-07-09 12:00:00 25.2 31 Norte 42 Norte 0 1012.6 0.4 65
2018-07-09 11:00:00 23.8 27 Norte 42 Norte 0 1012.7 0.9 69
2018-07-09 10:00:00 22.8 30 Norte 45 Norte 0 1012.4 0.6 74
2018-07-09 09:00:00 21.1 28 Norte 46 Norte 0 1012.2 0.7 80
2018-07-09 08:00:00 20.1 24 Norte 39 Norte 0 1011.8 0 82
2018-07-09 07:00:00 19.8 23 Norte 33 Norte 0 1011.8 -0.2 85
2018-07-09 06:00:00 19.9 23 Norte 41 Norte 0 1011.5 -0.6 85
2018-07-09 05:00:00 19.9 23 Norte 41 Norte 0 1011.8 -0.4 85
2018-07-09 04:00:00 20 26 Norte 39 Norte 0 1012 -0.9 84
2018-07-09 03:00:00 20.3 33 Norte 46 Norte 0 1012.1 -1.4 83
2018-07-09 02:00:00 20.5 27 Norte 41 Norte 0 1012.2 -1.3 82
2018-07-09 01:00:00 20.6 29 Norte 45 Norte 0 1012.9 -0.2 81
2018-07-09 00:00:00 20.9 28 Norte 46 Norte 0 1013.5 1 79
2018-07-08 23:00:00 21.1 27 Norte 46 Norte 0 1013.5 1.1 78
2018-07-08 22:00:00 21.2 35 Norte 54 Norte 0 1013.1 1.2 77
2018-07-08 21:00:00 21.8 31 Norte 48 Norte 0 1012.5 0 74
2018-07-08 20:00:00 22.3 35 Norte 54 Norte 0 1012.4 -0.3 73
2018-07-08 19:00:00 23 39 Norte 52 Norte 0 1011.9 -0.5 70
2018-07-08 18:00:00 23.4 39 Norte 46 Norte 0 1012.5 0 71
2018-07-08 17:00:00 23.9 38 Norte 48 Norte 0 1012.7 0.2 66
2018-07-08 16:00:00 24.3 41 Norte 54 Norte 0 1012.4 -0.4 65
2018-07-08 15:00:00 25 39 Norte 52 Norte 0 1012.5 -0.4 63
2018-07-08 14:00:00 25 33 Norte 52 Norte 0 1012.5 0.4 62
2018-07-08 13:00:00 24 39 Norte 54 Norte 0 1012.8 -0.1 65
2018-07-08 12:00:00 24.1 44 Norte 54 Nordeste 0 1012.9 0.7 63
2018-07-08 11:00:00 23.1 32 Norte 52 Norte 0 1012.1 0.3 67
2018-07-08 10:00:00 21.7 28 Norte 48 Norte 0 1012.9 1.1 71
2018-07-08 09:00:00 21 28 Norte 46 Norte 0 1012.2 0.9 74
2018-07-08 08:00:00 20.5 30 Norte 46 Norte 0 1011.8 0.5 77
2018-07-08 07:00:00 20.2 28 Norte 45 Norte 0 1011.8 0.4 79
2018-07-08 06:00:00 20.1 26 Norte 42 Norte 0 1011.3 -0.5 78
2018-07-08 05:00:00 20.1 28 Norte 45 Norte 0 1011.3 -1.2 78
2018-07-08 04:00:00 20.1 27 Norte 48 Norte 0 1011.4 -1.5 78
2018-07-08 03:00:00 20.5 29 Norte 48 Norte 0 1011.8 -1.3 76
2018-07-08 02:00:00 20.6 29 Norte 48 Norte 0 1012.5 -0.7 77
2018-07-08 01:00:00 20.7 32 Norte 50 Norte 0 1012.9 0.4 77
2018-07-08 00:00:00 21 31 Norte 48 Norte 0 1013.1 0.9 75
2018-07-07 23:00:00 21.2 32 Norte 50 Norte 0 1013.2 2.1 74
2018-07-07 22:00:00 21.4 33 Norte 52 Norte 0 1012.5 1.3 73
2018-07-07 21:00:00 21.5 34 Norte 55 Norte 0 1012.2 0.5 71
2018-07-07 20:00:00 22.7 31 Norte 59 Norte 0 1011.1 -0.5 69
2018-07-07 19:00:00 23.6 37 Norte 54 Norte 0 1011.2 -0.8 64
2018-07-07 18:00:00 24.5 33 Norte 61 Norte 0 1011.7 -0.6 61
2018-07-07 17:00:00 25.2 42 Norte 61 Norte 0 1011.6 -0.7 60
2018-07-07 16:00:00 25.1 40 Norte 59 Norte 0 1012 -0.4 60
2018-07-07 15:00:00 25.9 41 Norte 58 Norte 0 1012.3 -0.2 58
2018-07-07 14:00:00 25.4 38 Norte 59 Norte 0 1012.3 0.1 58
2018-07-07 13:00:00 25.3 39 Norte 59 Norte 0 1012.4 0.3 58
2018-07-07 12:00:00 24.4 35 Norte 58 Norte 0 1012.5 0.7 58
2018-07-07 11:00:00 23 33 Norte 59 Norte 0 1012.2 0.8 63
2018-07-07 10:00:00 22.3 32 Norte 58 Norte 0 1012.1 0.9 65
2018-07-07 09:00:00 21.1 35 Norte 55 Norte 0 1011.8 1 70
2018-07-07 08:00:00 20.3 35 Norte 55 Norte 0 1011.4 0.6 73
2018-07-07 07:00:00 20 32 Norte 55 Norte 0 1011.2 0 72
2018-07-07 06:00:00 20.3 34 Norte 48 Norte 0 1010.8 -1 76
2018-07-07 05:00:00 20.3 35 Norte 55 Norte 0 1010.8 -1.3 74
2018-07-07 04:00:00 20.5 29 Norte 52 Norte 0 1011.2 -1.4 74
2018-07-07 03:00:00 20.7 32 Norte 55 Norte 0 1011.8 -1.2 74
2018-07-07 02:00:00 20.8 33 Norte 52 Norte 0 1012.1 -1 73
2018-07-07 01:00:00 21.1 37 Norte 59 Norte 0 1012.6 -0.2 71
2018-07-07 00:00:00 21.3 32 Norte 59 Norte 0 1013 0.6 72
2018-07-06 23:00:00 21.3 35 Norte 54 Norte 0 1013.1 1.1 71
2018-07-06 22:00:00 21.5 31 Norte 55 Norte 0 1012.8 1.1 73
2018-07-06 21:00:00 21.6 35 Norte 58 Norte 0 1012.4 0.6 72
2018-07-06 20:00:00 22.6 33 Norte 58 Norte 0 1012 -0.3 67
2018-07-06 19:00:00 23.2 35 Norte 59 Norte 0 1011.7 -0.8 63
2018-07-06 18:00:00 24.2 33 Norte 63 Norte 0 1011.8 -1.1 62
2018-07-06 17:00:00 24.1 37 Norte 67 Nordeste 0 1012.3 -1.1 61
2018-07-06 16:00:00 24.9 39 Norte 67 Norte 0 1012.5 -1.3 59
2018-07-06 15:00:00 24.9 42 Norte 63 Norte 0 1012.9 -1.3 57
2018-07-06 14:00:00 24.1 41 Norte 65 Norte 0 1013.4 -0.9 61
2018-07-06 13:00:00 23.6 35 Norte 63 Norte 0 1013.8 -0.7 61
2018-07-06 12:00:00 22.5 44 Norte 58 Norte 0 1014.2 0.1 66
2018-07-06 11:00:00 21.8 36 Norte 61 Norte 0 1014.3 0.8 69
2018-07-06 10:00:00 21.3 36 Norte 58 Norte 0 1014.5 1.2 71
2018-07-06 09:00:00 20.9 39 Norte 58 Norte 0 1014.1 1.4 74
2018-07-06 08:00:00 20.5 37 Norte 65 Norte 0 1013.5 1.3 74
2018-07-06 07:00:00 20.5 34 Norte 65 Norte 0 1013.3 1 75
2018-07-06 06:00:00 20.4 36 Norte 59 Norte 0 1012.7 -0.1 75
2018-07-06 05:00:00 20.5 35 Norte 59 Norte 0 1012.2 -1.4 75
2018-07-06 04:00:00 20.5 34 Norte 59 Norte 0 1012.3 -2 74
2018-07-06 03:00:00 20.6 39 Norte 59 Norte 0 1012.8 -2.3 75
2018-07-06 02:00:00 20.7 38 Norte 59 Norte 0 1013.6 -1.4 74
2018-07-06 01:00:00 20.8 33 Norte 58 Norte 0 1014.3 -- 75
2018-07-06 00:00:00 21.1 30 Norte 58 Norte 0 1015.1 1.1 72
2018-07-05 23:00:00 21.2 34 Norte -- -- -- 1015 1 75
2018-07-05 22:00:00 -- -- -- -- -- -- -- -- --
2018-07-05 21:00:00 21.9 31 Norte 52 Norte 0 1014 0.1 69
2018-07-05 20:00:00 22.7 33 Norte 55 Norte 0 1014 -0.4 68
2018-07-05 19:00:00 23.3 39 Norte 58 Norte 0 1013.8 -0.9 66
2018-07-05 18:00:00 24.2 38 Norte 59 Norte 0 1013.9 -0.5 65
2018-07-05 17:00:00 24.5 39 Norte 61 Norte 0 1014.4 -0.9 61
2018-07-05 16:00:00 24.5 44 Norte 71 Norte 0 1014.7 -0.7 60
2018-07-05 15:00:00 24.6 41 Norte 63 Norte 0 1014.4 -1.2 61
2018-07-05 14:00:00 24.9 42 Norte 63 Norte 0 1015.3 -0.2 59
2018-07-05 13:00:00 24.2 42 Norte 61 Norte 0 1015.4 0.1 60
2018-07-05 12:00:00 23.8 41 Norte 61 Norte 0 1015.6 0.3 61
2018-07-05 11:00:00 22.6 41 Norte 65 Norte 0 1015.5 0.6 66
2018-07-05 10:00:00 21.9 40 Norte 63 Norte 0 1015.3 0.4 66
2018-07-05 09:00:00 21 37 Norte 63 Norte 0 1015.3 0.7 70
2018-07-05 08:00:00 20.3 33 Norte 54 Norte 0 1014.9 0.3 74
2018-07-05 07:00:00 20.2 33 Norte 54 Norte 0 1014.9 0 76
2018-07-05 06:00:00 20.2 33 Norte 54 Norte 0 1014.6 -0.5 76
2018-07-05 05:00:00 20.3 30 Norte 54 Norte 0 1014.6 -1.3 74
2018-07-05 04:00:00 20.4 31 Norte 55 Norte 0 1014.9 -1.3 75
2018-07-05 03:00:00 20.6 39 Norte 55 Norte 0 1015.1 -1 73
2018-07-05 02:00:00 20.6 37 Norte -- -- -- 1015.9 -0.1 75
2018-07-05 01:00:00 20.6 26 Norte 52 Norte 0 1016.2 0.5 73
2018-07-05 00:00:00 21 31 Norte 50 Norte 0 1016.1 0.9 70
2018-07-04 23:00:00 21 29 Norte 52 Norte 0 1016 1.2 72
2018-07-04 22:00:00 21.3 33 Norte 54 Norte 0 1015.7 1.4 69
2018-07-04 21:00:00 21.7 33 Norte 52 Norte 0 1015.2 1 67
2018-07-04 20:00:00 22.8 32 Norte 55 Norte 0 1014.8 0.3 62
2018-07-04 19:00:00 23.4 34 Norte 58 Norte 0 1014.3 0.3 60
2018-07-04 18:00:00 23.7 40 Norte 58 Norte 0 1014.2 -0.6 59
2018-07-04 17:00:00 24.1 39 Norte 65 Norte 0 1014.5 -0.6 60
2018-07-04 16:00:00 24.3 41 Norte 63 Norte 0 1014 -1.3 59
2018-07-04 15:00:00 23.8 42 Norte 61 Norte 0 1014.8 -0.3 61
2018-07-04 14:00:00 24.4 40 Norte 59 Norte 0 1015.1 0.2 58
2018-07-04 13:00:00 24.1 41 Norte 61 Norte 0 1015.3 0.3 59
2018-07-04 12:00:00 23.7 45 Norte 59 Norte 0 1015.1 0 61
2018-07-04 11:00:00 22.5 35 Norte 54 Norte 0 1014.9 0.9 65
2018-07-04 10:00:00 22.7 37 Norte 48 Norte 0 1015 1.3 64
2018-07-04 09:00:00 21.1 31 Norte 46 Norte 0 1015.1 1.8 71
2018-07-04 08:00:00 20.8 31 Norte 50 Norte 0 1014 1.2 74
2018-07-04 07:00:00 20.7 31 Norte 50 Norte 0 1013.7 0.7 75
2018-07-04 06:00:00 20.9 32 Norte 54 Norte 0 1013.3 -0.3 74
2018-07-04 05:00:00 20.7 32 Norte 52 Norte 0 1012.8 -1.1 75
2018-07-04 04:00:00 20.7 35 Norte 54 Norte 0 1013 -1.5 77
2018-07-04 03:00:00 20.9 32 Norte 54 Norte 0 1013.6 -0.8 78
2018-07-04 02:00:00 21.1 31 Norte -- -- -- 1013.9 -0.6 76
2018-07-04 01:00:00 21.1 28 Norte 48 Norte 0 1014.5 0.5 75
2018-07-04 00:00:00 21.2 31 Norte 50 Norte 0 1014.4 1.4 76
2018-07-03 23:00:00 21.3 28 Norte 50 Norte 0 1014.5 1.9 74
2018-07-03 22:00:00 21.5 30 Norte 52 Norte 0 1014 1.7 72
2018-07-03 21:00:00 21.9 31 Norte 52 Norte 0 1013 0.6 69
2018-07-03 20:00:00 22.9 32 Norte 50 Norte 0 1012.6 0 63
2018-07-03 19:00:00 23.6 35 Norte 54 Norte 0 1012.3 -0.6 58
2018-07-03 18:00:00 24.6 35 Norte 55 Norte 0 1012.4 -0.6 53
2018-07-03 17:00:00 25.1 39 Norte 58 Norte 0 1012.6 -0.8 55
2018-07-03 16:00:00 24.9 42 Norte 63 Norte 0 1012.9 -0.1 53
2018-07-03 15:00:00 24.9 45 Norte 63 Norte 0 1013 0 56
2018-07-03 14:00:00 24.6 44 Norte 65 Norte 0 1013.4 0.7 59
2018-07-03 13:00:00 24.9 42 Norte 65 Norte 0 1013 0.5 59
2018-07-03 12:00:00 23.8 34 Norte 59 Norte 0 1013 0.5 60
2018-07-03 11:00:00 23.3 39 Norte 59 Norte -- 1012.7 0.9 62
2018-07-03 10:00:00 22.7 33 Norte 48 Norte 0 1012.5 0.4 67
2018-07-03 09:00:00 21.3 27 Norte 46 Norte 0 1012.5 0.6 68
2018-07-03 08:00:00 21 27 Norte 42 Norte 0 1011.8 0.4 68
2018-07-03 07:00:00 20.5 27 Norte 48 Norte 0 1012.1 0.7 75
2018-07-03 06:00:00 20.4 26 Norte 46 Norte 0 1011.9 0.2 76
2018-07-03 05:00:00 20.3 26 Norte 41 Norte 0 1011.4 -0.8 77
2018-07-03 04:00:00 20.2 26 Norte 42 Norte 0 1011.4 -1.5 77
2018-07-03 03:00:00 20.4 28 Norte 46 Norte 0 1011.7 -1.4 77
2018-07-03 02:00:00 20.6 24 Norte -- -- -- 1012.2 -0.7 76
2018-07-03 01:00:00 20.9 23 Norte 39 Norte 0 1012.9 0.5 75
2018-07-03 00:00:00 21.1 23 Norte 42 Norte 0 1013.1 0.9 77
2018-07-02 23:00:00 21.3 28 Norte 42 Norte 0 1012.9 1.2 74
2018-07-02 22:00:00 21.6 26 Norte 42 Norte 0 1012.4 1 70
2018-07-02 21:00:00 22 24 Norte 45 Norte 0 1012.2 0.7 69
2018-07-02 20:00:00 22.8 35 Norte 52 Norte 0 1011.7 0.1 67
2018-07-02 19:00:00 23.8 32 Norte 50 Norte 0 1011.4 -0.4 59
2018-07-02 18:00:00 24.4 36 Norte 54 Norte 0 1011.5 -0.6 55
2018-07-02 17:00:00 25.1 45 Norte 55 Norte 0 1011.6 -0.9 57
2018-07-02 16:00:00 25.2 42 Norte 55 Norte 0 1011.8 -1 56
2018-07-02 15:00:00 24.8 44 Norte 52 Norte 0 1012.1 -0.8 61
2018-07-02 14:00:00 25 41 Norte 48 Nordeste 0 1012.5 0.1 59
2018-07-02 13:00:00 24.2 36 Norte 48 Nordeste 0 1012.8 0.5 62
2018-07-02 12:00:00 24.6 33 Norte 46 Nordeste 0 1012.9 0.8 62
2018-07-02 11:00:00 24 32 Norte 45 Norte 0 1012.4 0.5 63
2018-07-02 10:00:00 22.8 34 Norte 41 Norte 0 1012.3 0.5 67
2018-07-02 09:00:00 22.3 29 Norte 39 Norte 0 1012.1 0.6 71
2018-07-02 08:00:00 20 16 Norte 28 Norte 0 1011.9 0.5 78
2018-07-02 07:00:00 19.8 15 Norte 28 Norte 0 1011.8 0.5 80
2018-07-02 06:00:00 20.2 17 Norte 26 Norte 0 1011.5 0 80
2018-07-02 05:00:00 20.5 17 Norte 28 Norte 0 1011.4 -0.6 76
2018-07-02 04:00:00 19.9 12 Norte 22 Norte 0 1011.3 -1 71
2018-07-02 03:00:00 20 12 Norte 22 Norte 0 1011.5 -1 72
2018-07-02 02:00:00 20.4 13 Norte -- -- -- 1012 0 70
2018-07-02 01:00:00 20.5 14 Norte 26 Norte 0 1012.3 0.5 71
2018-07-02 00:00:00 20.8 16 Norte 30 Norte 0 1012.5 1 72
2018-07-01 23:00:00 21 19 Norte 32 Norte 0 1012 1.2 77
2018-07-01 22:00:00 21.2 20 Norte 32 Norte 0 1011.8 1.3 75
2018-07-01 21:00:00 21.6 25 Norte 37 Norte 0 1011.5 1.1 71
2018-07-01 20:00:00 22.8 28 Norte 42 Norte 0 1010.8 0.4 66
2018-07-01 19:00:00 23.4 35 Norte 46 Norte 0 1010.5 0.1 66
2018-07-01 18:00:00 23.8 40 Nordeste 52 Norte 0 1010.4 -0.5 65
2018-07-01 17:00:00 24.5 41 Norte 50 Norte 0 1010.4 -0.7 64
2018-07-01 16:00:00 24.6 40 Norte 50 Nordeste 0 1010.4 -1 63
2018-07-01 15:00:00 24.8 38 Norte 48 Norte 0 1010.9 -0.3 63
2018-07-01 14:00:00 24.8 37 Norte 48 Norte 0 1011.1 -0.2 64
2018-07-01 13:00:00 24.9 39 Nordeste 50 Nordeste 0 1011.4 0.4 62
2018-07-01 12:00:00 24.7 37 Norte 46 Norte 0 1011.2 0.6 61
2018-07-01 11:00:00 24.2 35 Norte 45 Nordeste 0 1011.3 0.9 65
2018-07-01 10:00:00 23.1 32 Norte 39 Norte 0 1011 0.4 70
2018-07-01 09:00:00 22.1 21 Norte 30 Norte 0 1010.6 0.4 66
2018-07-01 08:00:00 20.1 16 Norte 22 Norte 0 1010.4 0.3 71
2018-07-01 07:00:00 19 7 Norte 17 Norte 0 1010.6 0.6 73
2018-07-01 06:00:00 18.7 9 Norte 15 Norte 0 1010.2 0 78
2018-07-01 05:00:00 19.4 7 Norte 15 Norte 0 1010.1 -0.3 76
2018-07-01 04:00:00 19.5 8 Norte 15 Norte 0 1010 -0.7 76
2018-07-01 03:00:00 20.2 9 Norte 28 Norte 0 1010.2 -0.6 78
2018-07-01 02:00:00 20.8 15 Norte -- -- -- 1010.4 0.1 80
2018-07-01 01:00:00 21.1 15 Norte 26 Norte 0 1010.7 0.8 77
2018-07-01 00:00:00 21.1 14 Norte 22 Norte 0 1010.8 1.6 72
2018-06-30 23:00:00 21.1 15 Norte 28 Norte 0 1010.3 1.9 73
2018-06-30 22:00:00 21.4 17 Norte 35 Norte 0 1009.9 1.6 73
2018-06-30 21:00:00 22.1 24 Norte 37 Norte 0 1009.2 0.9 72
2018-06-30 20:00:00 23.2 24 Norte 41 Norte 0 1008.4 0.1 63
2018-06-30 19:00:00 23.6 29 Norte 46 Norte 0 1008.3 -0.1 63
2018-06-30 18:00:00 24.3 27 Norte 46 Nordeste 0 1008.3 -0.2 60
2018-06-30 17:00:00 24.6 35 Norte 48 Norte 0 1008.3 -0.7 61
2018-06-30 16:00:00 24.8 34 Norte 46 Nordeste 0 1008.4 -0.7 61
2018-06-30 15:00:00 25.3 39 Nordeste 50 Nordeste 0 1008.5 -0.6 61
2018-06-30 14:00:00 25 37 Norte 46 Nordeste 0 1009 -0.1 60
2018-06-30 13:00:00 24.7 38 Nordeste 46 Nordeste 0 1009.1 0 62
2018-06-30 12:00:00 23 36 Nordeste 42 Nordeste 0 1009.1 0.2 68
2018-06-30 11:00:00 23.1 32 Nordeste 39 Nordeste 0 1009.1 0.8 65
2018-06-30 10:00:00 22 18 Norte 28 Norte 0 1009.1 1.3 65
2018-06-30 09:00:00 21.2 16 Noroeste 28 Noroeste 0 1008.9 1.4 65
2018-06-30 08:00:00 20.4 18 Norte 37 Norte 0 1008.3 1.1 74
2018-06-30 07:00:00 21.1 17 Norte 32 Norte 0 1007.8 0.8 69
2018-06-30 06:00:00 21 18 Norte 39 Norte 0 1007.5 0.1 70
2018-06-30 05:00:00 21.1 23 Norte 35 Norte 0 1007.2 -0.6 71
2018-06-30 04:00:00 21.3 18 Norte 35 Norte 0 1007 -1.1 70
2018-06-30 03:00:00 21.5 17 Norte 32 Norte 0 1007.4 -0.6 71
2018-06-30 02:00:00 22 17 Noroeste -- -- -- 1007.8 0.2 65
2018-06-30 01:00:00 22.3 13 Norte 28 Norte 0 1008.1 0.9 65
2018-06-30 00:00:00 22.6 13 Norte 28 Norte 0 1008 1.1 64
2018-06-29 23:00:00 22.3 15 Norte 33 Noroeste 0 1007.6 0.5 68
2018-06-29 22:00:00 22.6 20 Norte 35 Norte 0 1007.2 0 70
2018-06-29 21:00:00 23 17 Norte 37 Norte 0 1006.9 -0.7 69
2018-06-29 20:00:00 22.8 26 Norte 33 Norte 0 1007.1 -0.6 78
2018-06-29 19:00:00 23.6 17 Nordeste 22 Nordeste 0 1007.2 -0.3 72
2018-06-29 18:00:00 23.4 18 Nordeste 26 Norte 0 1007.6 -0.1 75
2018-06-29 17:00:00 23.5 13 Sudeste 30 Sur 0 1007.7 -0.4 77
2018-06-29 16:00:00 25.4 23 Sur 37 Sur 0 1007.5 -1.2 61
2018-06-29 15:00:00 26.4 29 Sur 45 Sur 0 1007.7 -1.2 56
2018-06-29 14:00:00 25.7 26 Sur 39 Sur 0 1008.1 -1 57
2018-06-29 13:00:00 25.9 25 Sur 37 Sur 0 1008.7 -0.2 59
2018-06-29 12:00:00 24.9 19 Sur 33 Sur 0 1008.9 -0.1 63
2018-06-29 11:00:00 24.5 17 Sur 28 Sur 0 1009.1 0.4 63
2018-06-29 10:00:00 24.1 14 Sur 21 Sur 0 1008.9 0.4 65
2018-06-29 09:00:00 22.2 14 Sudoeste 18 Sur 0 1009 0.6 72
2018-06-29 08:00:00 20.4 8 Sudoeste 13 Sudoeste 0 1008.7 0.1 78
2018-06-29 07:00:00 18.6 6 Sudoeste 11 Sudoeste 0 1008.5 -0.2 81
2018-06-29 06:00:00 18.7 2 Oeste -- -- 0 1008.4 -1 81
2018-06-29 05:00:00 19.6 2 Norte 11 Sudoeste 0 1008.6 -1.7 80
2018-06-29 04:00:00 20.1 9 Sudoeste 13 Sudoeste 0 1008.7 -2.2 79
2018-06-29 03:00:00 19.5 3 Sudoeste 13 Norte 0 1009.4 -1.6 79
2018-06-29 02:00:00 20.1 3 Sudoeste 11 Sudoeste 0 1010.3 -0.6 78
2018-06-29 01:00:00 20.9 9 Sudoeste 13 Sudoeste 0 1010.9 0 78
2018-06-29 00:00:00 21.5 2 Sur 15 Sudoeste 0 1011 0.6 73
2018-06-28 23:00:00 22.9 9 Norte 24 Noroeste 0 1010.9 0.4 60
2018-06-28 22:00:00 23 15 Noroeste 35 Norte 0 1010.9 0.5 63
2018-06-28 21:00:00 23.7 13 Norte 26 Norte 0 1010.4 -0.4 58
2018-06-28 20:00:00 25 9 Sur 33 Norte 0 1010.5 -0.6 62
2018-06-28 19:00:00 25.8 29 Norte 46 Norte 0 1010.4 -1.3 56
2018-06-28 18:00:00 26.3 37 Norte 52 Norte 0 1010.8 -0.9 55
2018-06-28 17:00:00 26.6 32 Norte 52 Nordeste 0 1011.1 -1.6 52
2018-06-28 16:00:00 26.5 44 Norte 61 Nordeste 0 1011.7 -1.6 56
2018-06-28 15:00:00 26.6 48 Norte 61 Norte 0 1011.7 -1.5 57
2018-06-28 14:00:00 26.8 42 Norte 63 Nordeste 0 1012.7 -1.1 52
2018-06-28 13:00:00 25.7 50 Norte 61 Nordeste 0 1013.3 -0.3 62
2018-06-28 12:00:00 25.4 44 Norte 55 Norte 0 1013.2 -0.2 57
2018-06-28 11:00:00 24.3 32 Norte 46 Norte 0 1013.8 0.4 63
2018-06-28 10:00:00 22.2 29 Norte 45 Norte 0 1013.6 0.5 72
2018-06-28 09:00:00 21.7 27 Norte 48 Norte 0 1013.4 0.3 68
2018-06-28 08:00:00 21.3 25 Norte 39 Norte 0 1013.4 0.3 73
2018-06-28 07:00:00 20.8 22 Norte 37 Norte 0 1013.1 -0.1 75
2018-06-28 06:00:00 20.3 21 Norte 41 Norte 0 1013.1 -0.5 74
2018-06-28 05:00:00 20.8 24 Norte 37 Norte 0 1013.1 -1.3 67
2018-06-28 04:00:00 20.1 22 Norte 35 Norte 0 1013.2 -1.7 72
2018-06-28 03:00:00 20.5 20 Norte 41 Norte 0 1013.6 -1.3 70
2018-06-28 02:00:00 20.2 24 Norte 42 Norte 0 1014.4 -0.4 77
2018-06-28 01:00:00 20.4 23 Norte 37 Norte 0 1014.9 0.5 75
2018-06-28 00:00:00 20.6 23 Norte 42 Norte 0 1014.9 0.6 76
2018-06-27 23:00:00 20.9 27 Norte 42 Norte 0 1014.8 1.4 74
2018-06-27 22:00:00 21.1 28 Norte 45 Norte 0 1014.4 1.3 73
2018-06-27 21:00:00 21.6 37 Norte 48 Norte 0 1014.3 0.7 70
2018-06-27 20:00:00 23 37 Norte 54 Norte 0 1013.4 -0.4 67
2018-06-27 19:00:00 23.2 36 Norte 58 Norte 0 1013.1 -0.9 66
2018-06-27 18:00:00 24.6 43 Norte 55 Norte 0 1013.6 -0.9 60
2018-06-27 17:00:00 25 46 Norte 55 Norte 0 1013.8 -1.1 57
2018-06-27 16:00:00 25.1 42 Norte 59 Norte 0 1014 -1 58
2018-06-27 15:00:00 25.2 49 Norte 61 Norte 0 1014.5 -0.5 59
2018-06-27 14:00:00 24.8 50 Norte 59 Norte 0 1014.9 -0.2 58
2018-06-27 13:00:00 24.3 44 Norte 58 Norte 0 1015 -0.2 60
2018-06-27 12:00:00 24.1 44 Norte 54 Norte 0 1015 -0.2 61
2018-06-27 11:00:00 23.4 41 Norte 54 Norte 0 1015.1 -0.1 60
2018-06-27 10:00:00 21.6 31 Norte 48 Norte 0 1015.2 0.3 66
2018-06-27 09:00:00 21.2 28 Norte 45 Norte 0 1015.2 0.3 68
2018-06-27 08:00:00 19.7 23 Norte 33 Norte 0 1015.2 0.3 73
2018-06-27 07:00:00 19.5 21 Norte 39 Norte 0 1014.9 -0.1 74
2018-06-27 06:00:00 19.9 22 Norte 39 Norte 0 1014.9 0.3 77
2018-06-27 05:00:00 20 27 Norte 39 Norte 0 1014.9 -0.2 75
2018-06-27 04:00:00 20.1 24 Norte 45 Norte 0 1015 -0.6 75
2018-06-27 03:00:00 20.1 27 Norte 45 Norte 0 1014.6 -0.9 76
2018-06-27 02:00:00 20.2 26 Norte 39 Norte 0 1015.1 -0.1 79
2018-06-27 01:00:00 20.3 23 Norte 35 Norte 0 1015.6 0.5 79
2018-06-27 00:00:00 20.5 22 Norte 37 Norte 0 1015.5 0.9 81
2018-06-26 23:00:00 20.7 23 Norte 39 Norte 0 1015.2 1.5 79
2018-06-26 22:00:00 20.9 21 Norte 33 Norte 0 1015.1 1.3 79
2018-06-26 21:00:00 21.2 23 Norte 45 Norte 0 1014.6 1.1 77
2018-06-26 20:00:00 22.5 28 Norte 46 Norte 0 1013.7 -0.5 69
2018-06-26 19:00:00 24 33 Norte 48 Norte 0 1013.8 -0.3 61
2018-06-26 18:00:00 24.5 31 Norte 46 Norte 0 1013.5 -0.9 58
2018-06-26 17:00:00 25 35 Norte 50 Norte 0 1014.2 -0.6 59
2018-06-26 16:00:00 24.8 37 Norte 50 Norte 0 1014.1 -0.8 60
2018-06-26 15:00:00 25 37 Norte 48 Norte 0 1014.4 -0.8 58
2018-06-26 14:00:00 24.4 36 Norte 58 Nordeste 0 1014.8 0.1 62
2018-06-26 13:00:00 24 33 Norte 48 Norte 0 1014.9 0.4 60
2018-06-26 12:00:00 24 35 Norte 46 Norte 0 1015.2 0.7 60
2018-06-26 11:00:00 23.3 27 Norte 45 Norte 0 1014.7 0.6 61
2018-06-26 10:00:00 22.8 31 Norte 42 Norte 0 1014.5 1 67
2018-06-26 09:00:00 21.6 28 Norte 35 Norte 0 1014.5 1.1 73
2018-06-26 08:00:00 19.7 14 Norte 26 Norte 0 1014.1 0.8 79
2018-06-26 07:00:00 19.3 19 Norte 26 Norte 0 1013.5 -0.1 82
2018-06-26 06:00:00 19.5 15 Norte 24 Norte 0 1013.4 -0.6 83
2018-06-26 05:00:00 19.5 14 Norte 24 Norte 0 1013.3 -1 79
2018-06-26 04:00:00 19.6 14 Norte 22 Norte 0 1013.6 -0.8 77
2018-06-26 03:00:00 19.7 14 Norte 24 Norte 0 1014 -1 80
2018-06-26 02:00:00 20 14 Norte 28 Norte 0 1014.3 -0.3 82
2018-06-26 01:00:00 20.2 17 Norte 30 Norte 0 1014.4 0.3 78
2018-06-26 00:00:00 20.6 15 Norte 33 Norte 0 1015 1.3 81
2018-06-25 23:00:00 20.8 17 Norte 32 Nordeste 0 1014.6 1.5 78
2018-06-25 22:00:00 21.1 21 Norte 33 Nordeste 0 1014.1 1.2 78
2018-06-25 21:00:00 21.5 23 Norte 35 Norte 0 1013.7 1 76
2018-06-25 20:00:00 22.4 27 Norte 41 Norte 0 1013.1 0.3 71
2018-06-25 19:00:00 23.6 27 Norte 41 Norte 0 1012.9 -0.2 63
2018-06-25 18:00:00 24.2 25 Norte 41 Norte 0 1012.7 -0.6 60
2018-06-25 17:00:00 25.9 30 Norte 37 Nordeste 0 1012.8 -0.9 51
2018-06-25 16:00:00 25 27 Norte 37 Nordeste 0 1013.1 -1 54
2018-06-25 15:00:00 25.1 28 Norte 37 Nordeste 0 1013.3 -0.8 53
2018-06-25 14:00:00 24.4 26 Norte 35 Nordeste 0 1013.7 -0.3 59
2018-06-25 13:00:00 23.9 26 Nordeste 33 Norte 0 1014.1 0.5 62
2018-06-25 12:00:00 23.5 23 Nordeste 32 Norte 0 1014.1 1 65
2018-06-25 11:00:00 22.6 23 Nordeste 30 Nordeste 0 1014 1.2 68
2018-06-25 10:00:00 21.5 24 Nordeste 28 Nordeste 0 1013.6 1.1 75
2018-06-25 09:00:00 20.5 15 Norte 26 Norte 0 1013.1 1 77
2018-06-25 08:00:00 18.8 12 Norte 21 Norte 0 1012.8 1 79
2018-06-25 07:00:00 18.7 14 Norte 22 Norte 0 1012.5 0.7 76
2018-06-25 06:00:00 18.6 13 Norte 21 Norte 0 1012.1 -0.1 79
2018-06-25 05:00:00 18.3 12 Norte 18 Norte 0 1011.8 -1 82
2018-06-25 04:00:00 18.6 12 Norte 21 Norte 0 1011.8 -1.7 80
2018-06-25 03:00:00 19.1 14 Norte 22 Norte 0 1012.2 -1.2 77
2018-06-25 02:00:00 19.5 14 Norte 22 Norte 0 1012.8 -0.4 77
2018-06-25 01:00:00 19.9 16 Norte 24 Norte 0 1013.5 0.9 78
2018-06-25 00:00:00 20.1 16 Norte 24 Norte 0 1013.4 1.2 73
2018-06-24 23:00:00 20.3 17 Norte 28 Norte 0 1013.2 1.1 74
2018-06-24 22:00:00 20.5 19 Norte 32 Norte 0 1012.6 0.9 78
2018-06-24 21:00:00 21.1 21 Norte 30 Norte 0 1012.2 0.3 73
2018-06-24 20:00:00 22.1 22 Norte 37 Nordeste 0 1012.1 0.1 67
2018-06-24 19:00:00 23 31 Norte 41 Norte 0 1011.7 -0.5 64
2018-06-24 18:00:00 23.7 30 Nordeste 39 Nordeste 0 1011.9 -0.5 60
2018-06-24 17:00:00 23.6 30 Norte 39 Nordeste 0 1012 -0.8 62
2018-06-24 16:00:00 24.4 26 Norte 37 Nordeste 0 1012.2 -1 57
2018-06-24 15:00:00 24.3 29 Norte 39 Nordeste 0 1012.4 -0.7 58
2018-06-24 14:00:00 24.2 30 Nordeste 41 Norte 0 1012.8 -0.3 59
2018-06-24 13:00:00 23.9 30 Norte 41 Norte 0 1013.2 0.1 57
2018-06-24 12:00:00 23.7 35 Nordeste 42 Nordeste 0 1013.1 0.4 62
2018-06-24 11:00:00 23.3 35 Nordeste 42 Norte 0 1013.1 0.8 63
2018-06-24 10:00:00 22.2 32 Nordeste 39 Nordeste 0 1013.1 1.4 68
2018-06-24 09:00:00 20.4 22 Norte 30 Norte 0 1012.7 1.2 78
2018-06-24 08:00:00 18.6 6 Norte 13 Noroeste 0 1012.3 0.9 81
2018-06-24 07:00:00 18.1 8 Norte 15 Norte 0 1011.7 0.4 79
2018-06-24 06:00:00 18.6 8 Norte 11 Noroeste 0 1011.5 0.3 73
2018-06-24 05:00:00 19.7 7 Norte 11 Norte 0 1011.4 -0.6 72
2018-06-24 04:00:00 18.9 7 Noroeste 11 Norte 0 1011.3 -1.5 74
2018-06-24 03:00:00 19.5 8 Norte 18 Norte 0 1011.2 -1.8 73
2018-06-24 02:00:00 20.5 10 Norte 17 Norte 0 1012 -0.8 72
2018-06-24 01:00:00 21 8 Norte 15 Norte 0 1012.8 0.7 73
2018-06-24 00:00:00 21 6 Noroeste 17 Norte 0 1013 1.7 70
2018-06-23 23:00:00 21 9 Norte 18 Noroeste 0 1012.8 2 72
2018-06-23 22:00:00 21.3 8 Norte 24 Norte 0 1012.1 1.6 70
2018-06-23 21:00:00 21.7 23 Norte 33 Norte 0 1011.3 0.6 70
2018-06-23 20:00:00 22.9 26 Norte 37 Norte 0 1010.8 -0.2 62
2018-06-23 19:00:00 22.7 31 Nordeste 42 Nordeste 0 1010.5 -0.8 69
2018-06-23 18:00:00 23.7 35 Nordeste 45 Norte 0 1010.7 -1.3 63
2018-06-23 17:00:00 24 32 Nordeste 45 Nordeste 0 1011 -1.2 63
2018-06-23 16:00:00 24.4 33 Norte 46 Norte 0 1011.3 -1.5 58
2018-06-23 15:00:00 24.2 36 Nordeste 46 Nordeste 0 1012 -0.9 61
2018-06-23 14:00:00 24.2 39 Nordeste 48 Norte 0 1012.2 -0.4 60
2018-06-23 13:00:00 24.5 41 Nordeste 52 Nordeste 0 1012.8 0.7 58
2018-06-23 12:00:00 23.6 37 Nordeste 48 Nordeste 0 1012.9 0.7 60
2018-06-23 11:00:00 21.5 24 Norte 42 Norte 0 1012.6 0.6 65
2018-06-23 10:00:00 21 23 Norte 39 Norte 0 1012.1 0.6 68
2018-06-23 09:00:00 21 20 Norte 32 Norte 0 1012.2 0.9 66
2018-06-23 08:00:00 19.5 5 Norte 18 Norte 0 1012 0.5 74
2018-06-23 07:00:00 19.3 14 Norte 37 Norte 0 1011.5 -0.2 73
2018-06-23 06:00:00 19.3 20 Norte 42 Norte 0 1011.3 -1.2 75
2018-06-23 05:00:00 20 23 Norte 37 Norte 0 1011.5 -1.6 73
2018-06-23 04:00:00 19.3 21 Norte 33 Norte 0 1011.7 -1.7 72
2018-06-23 03:00:00 19.6 15 Norte 28 Norte 0 1012.5 -1 72
2018-06-23 02:00:00 19.3 17 Norte 33 Norte 0 1013.1 -0.2 72
2018-06-23 01:00:00 19.5 19 Norte 33 Norte 0 1013.4 0.3 69
2018-06-23 00:00:00 19.7 16 Norte 39 Norte 0 1013.5 0.8 67
2018-06-22 23:00:00 20 23 Norte 42 Norte 0 1013.3 0.5 66
2018-06-22 22:00:00 20.2 26 Norte 42 Norte 0 1013.1 0.6 66
2018-06-22 21:00:00 20.6 26 Norte 45 Norte 0 1012.7 0.1 67
2018-06-22 20:00:00 21.8 30 Norte 46 Norte 0 1012.8 0.2 61
2018-06-22 19:00:00 22.7 28 Norte 52 Norte 0 1012.5 -0.3 59
2018-06-22 18:00:00 23.3 31 Norte 54 Norte 0 1012.6 -0.9 60
2018-06-22 17:00:00 23.8 32 Norte 61 Norte 0 1012.6 -1.1 59
2018-06-22 16:00:00 24.1 37 Norte 58 Norte 0 1012.8 -0.9 57
2018-06-22 15:00:00 24.5 37 Norte 55 Norte 0 1013.5 -0.6 58
2018-06-22 14:00:00 24 37 Norte 52 Norte 0 1013.7 -0.2 57
2018-06-22 13:00:00 23.4 31 Norte 52 Norte 0 1013.7 -0.4 58
2018-06-22 12:00:00 21.8 32 Norte 50 Norte 0 1014.1 0 65
2018-06-22 11:00:00 21.6 26 Norte 46 Norte 0 1013.9 0.2 65
2018-06-22 10:00:00 20.9 23 Norte 37 Norte 0 1014.1 0.8 68
2018-06-22 09:00:00 20.3 21 Norte 45 Norte 0 1014.1 1.1 72
2018-06-22 08:00:00 19.9 24 Norte 45 Norte 0 1013.7 0.7 71
2018-06-22 07:00:00 19.8 25 Norte 48 Norte 0 1013.3 0.2 75
2018-06-22 06:00:00 19.8 27 Norte 50 Norte 0 1013 -0.8 74
2018-06-22 05:00:00 19.9 26 Norte 42 Norte 0 1013 -1.5 75
2018-06-22 04:00:00 19.8 23 Norte 48 Norte 0 1013.1 -1.8 74
2018-06-22 03:00:00 20 27 Norte 46 Norte 0 1013.8 -0.9 73
2018-06-22 02:00:00 19.8 24 Norte 46 Norte 0 1014.5 0.3 73
2018-06-22 01:00:00 19.9 29 Norte 52 Norte 0 1014.9 1.2 73
2018-06-22 00:00:00 20 23 Norte 48 Norte 0 1014.7 1 73
2018-06-21 23:00:00 20.1 30 Norte 50 Norte 0 1014.2 0.5 72
2018-06-21 22:00:00 20.2 32 Norte 54 Norte 0 1013.7 0.6 71
2018-06-21 21:00:00 20.6 31 Norte 46 Norte 0 1013.7 0.4 68
2018-06-21 20:00:00 21.6 31 Norte 50 Norte 0 1013.7 0 65
2018-06-21 19:00:00 22.8 33 Norte 58 Norte 0 1013.1 -0.8 61
2018-06-21 18:00:00 23.5 44 Norte 55 Norte 0 1013.3 -0.5 62
2018-06-21 17:00:00 24.1 47 Norte 61 Norte 0 1013.7 -0.1 61
2018-06-21 16:00:00 24.4 47 Norte 59 Norte 0 1013.9 -0.2 59
2018-06-21 15:00:00 24.4 50 Norte 63 Norte 0 1013.8 -0.6 59
2018-06-21 14:00:00 24.6 43 Norte 61 Norte 0 1013.8 -0.9 55
2018-06-21 13:00:00 24.5 44 Norte 54 Norte 0 1014.1 -0.9 58
2018-06-21 12:00:00 22.7 33 Norte 52 Norte 0 1014.4 -0.2 63
2018-06-21 11:00:00 21.4 21 Norte 35 Norte 0 1014.7 0.6 68
2018-06-21 10:00:00 20.8 17 Norte 28 Noroeste 0 1015 1.9 69
2018-06-21 09:00:00 20.4 16 Norte 30 Norte 0 1014.6 1.9 71
2018-06-21 08:00:00 20.2 17 Norte 33 Norte 0 1014.1 1.2 72
2018-06-21 07:00:00 19.8 14 Norte 33 Norte 0 1013.1 0.2 75
2018-06-21 06:00:00 19.6 19 Norte 33 Norte 0 1012.7 -0.4 76
2018-06-21 05:00:00 19.6 10 Norte 33 Norte 0 1012.9 -0.4 77
2018-06-21 04:00:00 19.8 21 Norte 32 Norte 0 1012.9 -0.7 76
2018-06-21 03:00:00 19.7 16 Norte 32 Norte 0 1013.1 -1.2 76
2018-06-21 02:00:00 20 17 Norte 46 Norte 0 1013.3 -0.6 74
2018-06-21 01:00:00 20.4 25 Norte 50 Norte 0 1013.6 0.1 72
2018-06-21 00:00:00 20.6 28 Norte 42 Norte 0 1014.3 1.3 72
2018-06-20 23:00:00 20.6 25 Norte 42 Norte 0 1013.9 1.6 71
2018-06-20 22:00:00 20.7 33 Norte 45 Norte 0 1013.5 2.3 72
2018-06-20 21:00:00 21.2 33 Norte 42 Norte 0 1013 1.4 70
2018-06-20 20:00:00 22.2 37 Norte 50 Nordeste 0 1012.3 0.8 65
2018-06-20 19:00:00 23 35 Norte 55 Norte 0 1011.2 -0.5 61
2018-06-20 18:00:00 24 45 Norte 55 Norte 0 1011.6 -0.3 59
2018-06-20 17:00:00 24 45 Norte 55 Norte 0 1011.5 -1.1 62
2018-06-20 16:00:00 24.5 45 Norte 59 Nordeste 0 1011.7 -1.3 59
2018-06-20 15:00:00 24.8 44 Norte 58 Norte 0 1011.9 -1.1 57
2018-06-20 14:00:00 24.6 46 Nordeste 61 Norte 0 1012.6 0 58
2018-06-20 13:00:00 25.1 40 Nordeste 52 Nordeste 0 1013 0.1 54
2018-06-20 12:00:00 23.8 27 Norte 45 Norte 0 1013 0.2 54
2018-06-20 11:00:00 22.7 26 Norte 42 Norte 0 1012.6 0.3 60
2018-06-20 10:00:00 21 23 Norte 37 Norte 0 1012.9 1 65
2018-06-20 09:00:00 20.6 20 Norte 32 Norte 0 1012.8 1 67
2018-06-20 08:00:00 20 15 Noroeste 32 Noroeste 0 1012.3 0.8 68
2018-06-20 07:00:00 19.5 13 Noroeste 24 Norte 0 1011.9 0.2 69
2018-06-20 06:00:00 19.9 16 Norte 24 Norte 0 1011.8 -0.3 68
2018-06-20 05:00:00 20.2 15 Norte 24 Nordeste 0 1011.5 -0.9 72
2018-06-20 04:00:00 20.2 14 Norte 22 Norte 0 1011.7 -1.3 75
2018-06-20 03:00:00 20 8 Norte 24 Norte 0 1012.1 -1.2 69
2018-06-20 02:00:00 20.2 17 Norte 32 Norte 0 1012.4 -0.2 69
2018-06-20 01:00:00 20.4 17 Norte 32 Norte 0 1013 0.8 74
2018-06-20 00:00:00 20.5 17 Norte 28 Norte 0 1013.3 1.9 74
2018-06-19 23:00:00 20.7 21 Norte 32 Norte 0 1012.6 1.4 72
2018-06-19 22:00:00 20.5 19 Norte 35 Norte 0 1012.2 1.1 72
2018-06-19 21:00:00 21.2 21 Norte 39 Norte 0 1011.4 0.1 71
2018-06-19 20:00:00 22.3 30 Norte 39 Nordeste 0 1011.2 -0.2 67
2018-06-19 19:00:00 22.6 30 Nordeste 39 Nordeste 0 1011.1 -0.4 69
2018-06-19 18:00:00 23.1 29 Norte 41 Nordeste 0 1011.3 -0.7 66
2018-06-19 17:00:00 23.8 32 Nordeste 41 Nordeste 0 1011.4 -1 63
2018-06-19 16:00:00 24.5 32 Nordeste 46 Nordeste 0 1011.5 -1.3 56
2018-06-19 15:00:00 24.4 32 Nordeste 42 Nordeste 0 1012 -1 53
2018-06-19 14:00:00 24.8 34 Nordeste 42 Nordeste 0 1012.4 -0.6 54
2018-06-19 13:00:00 23.8 32 Nordeste 42 Nordeste 0 1012.8 -0.1 57
2018-06-19 12:00:00 23.8 34 Nordeste 41 Nordeste 0 1013 0.1 57
2018-06-19 11:00:00 23.4 31 Nordeste 39 Nordeste 0 1013 0 57
2018-06-19 10:00:00 22.4 14 Norte 22 Norte 0 1012.9 0.2 61
2018-06-19 09:00:00 21.4 14 Norte 22 Norte 0 1012.9 0.6 62
2018-06-19 08:00:00 19 8 Norte 15 Norte 0 1013 0.8 71
2018-06-19 07:00:00 18.8 7 Noroeste 15 Oeste 0 1012.7 0.6 72
2018-06-19 06:00:00 18 10 Noroeste 15 Noroeste 0 1012.3 0 75
2018-06-19 05:00:00 17.6 8 Noroeste 11 Noroeste 0 1012.2 -0.7 76
2018-06-19 04:00:00 18.5 4 Norte 18 Norte 0 1012.1 -1.5 69
2018-06-19 03:00:00 18.8 8 Noroeste 13 Noroeste 0 1012.3 -1.6 69
2018-06-19 02:00:00 18.7 10 Norte 17 Norte 0 1012.9 -0.6 77
2018-06-19 01:00:00 19.5 10 Norte 22 Norte 0 1013.6 0.9 75
2018-06-19 00:00:00 20 17 Norte 28 Norte 0 1013.9 1.6 73
2018-06-18 23:00:00 20 16 Norte 35 Norte 0 1013.5 1.5 75
2018-06-18 22:00:00 20.1 22 Norte 37 Norte 0 1012.7 0.9 74
2018-06-18 21:00:00 20.7 23 Norte 35 Norte 0 1012.3 0.3 73
2018-06-18 20:00:00 21.6 27 Norte 46 Norte 0 1012 -0.1 66
2018-06-18 19:00:00 22.8 31 Norte 48 Norte 0 1011.8 -0.9 59
2018-06-18 18:00:00 23.5 39 Norte 52 Nordeste 0 1012 -1.2 61
2018-06-18 17:00:00 24.2 41 Norte 52 Nordeste 0 1012.1 -1.4 58
2018-06-18 16:00:00 23.8 42 Nordeste 50 Nordeste 0 1012.7 -1.2 56
2018-06-18 15:00:00 23.4 40 Norte 50 Norte 0 1013.2 -0.7 61
2018-06-18 14:00:00 23.5 33 Nordeste 46 Nordeste 0 1013.5 -0.8 58
2018-06-18 13:00:00 23.1 35 Norte 46 Norte 0 1013.9 -0.4 61
2018-06-18 12:00:00 23 31 Norte 41 Norte 0 1013.9 -0.2 62
2018-06-18 11:00:00 21 21 Norte 32 Norte 0 1014.3 0.6 67
2018-06-18 10:00:00 20.2 20 Norte 28 Norte 0 1014.3 1 75
2018-06-18 09:00:00 19.2 17 Norte 26 Norte 0 1014.1 1.2 80
2018-06-18 08:00:00 19.3 14 Norte 22 Norte 0 1013.7 1 78
2018-06-18 07:00:00 19.3 12 Norte 21 Norte 0 1013.3 0.7 76
2018-06-18 06:00:00 19.1 12 Norte 21 Norte 0 1012.9 -0.1 79
2018-06-18 05:00:00 18.9 14 Norte 24 Norte 0 1012.7 -0.8 80
2018-06-18 04:00:00 18.6 15 Norte 28 Noroeste 0 1012.6 -1.5 83
2018-06-18 03:00:00 18.8 19 Norte 30 Norte 0 1013 -1.4 86
2018-06-18 02:00:00 19.2 16 Norte 30 Norte 0 1013.5 -0.7 81
2018-06-18 01:00:00 19.1 18 Norte 33 Norte 0 1014.1 0.3 87
2018-06-18 00:00:00 19.1 17 Norte 35 Norte 0 1014.4 1.5 87
2018-06-17 23:00:00 18.9 19 Norte 33 Norte 0 1014.2 1.9 88
2018-06-17 22:00:00 19.9 23 Norte 42 Norte 0 1013.8 1.7 81
2018-06-17 21:00:00 20.3 34 Norte 42 Norte 0 1012.9 1 80
2018-06-17 20:00:00 22.3 26 Norte 48 Norte 0 1012.3 -0.1 62
2018-06-17 19:00:00 23.3 28 Norte 54 Norte 0 1012.1 -0.7 57
2018-06-17 18:00:00 24.2 31 Norte 55 Norte 0 1011.9 -1.2 53
2018-06-17 17:00:00 24.7 39 Norte 58 Norte 0 1012.4 -1.3 53
2018-06-17 16:00:00 24.5 33 Norte 52 Norte 0 1012.8 -1.3 51
2018-06-17 15:00:00 24.2 37 Norte 54 Norte 0 1013.1 -1 52
2018-06-17 14:00:00 23.6 37 Norte 58 Norte 0 1013.7 0.3 52
2018-06-17 13:00:00 23.2 39 Norte 54 Norte 0 1014.1 1 53
2018-06-17 12:00:00 22.7 37 Norte 54 Norte 0 1014.1 1.1 52
2018-06-17 11:00:00 21.8 30 Norte 54 Norte 0 1013.4 0.6 56
2018-06-17 10:00:00 20.7 32 Norte 54 Norte 0 1013.1 0.1 63
2018-06-17 09:00:00 20 29 Norte 50 Norte 0 1013 0.5 67
2018-06-17 08:00:00 18.9 28 Norte 45 Norte 0 1012.8 0.5 74
2018-06-17 07:00:00 18.6 22 Norte 39 Norte 0 1013 0.1 70
2018-06-17 06:00:00 18.8 26 Norte 39 Norte 0 1012.5 -1.3 71
2018-06-17 05:00:00 18.5 21 Norte 41 Norte 0 1012.3 -2.1 67
2018-06-17 04:00:00 18.6 17 Norte 32 Norte 0 1012.9 -1.6 69
2018-06-17 03:00:00 18.9 16 Norte 30 Norte 0 1013.8 -0.7 67
2018-06-17 02:00:00 19 19 Norte 33 Norte 0 1014.4 0.5 67
2018-06-17 01:00:00 19 19 Norte 42 Norte 0 1014.5 1 67
2018-06-17 00:00:00 19.2 26 Norte 45 Norte 0 1014.5 1.6 70
2018-06-16 23:00:00 19.5 25 Norte 41 Norte 0 1013.9 1.6 69
2018-06-16 22:00:00 19.7 25 Norte 46 Norte 0 1013.5 1.1 69
2018-06-16 21:00:00 20 24 Norte 52 Norte 0 1012.9 0.6 68
2018-06-16 20:00:00 21 32 Norte 52 Norte 0 1012.3 -0.1 62
2018-06-16 19:00:00 21.8 32 Norte 55 Norte 0 1012.4 0 61
2018-06-16 18:00:00 22.4 35 Norte 55 Norte 0 1012.3 -0.7 65
2018-06-16 17:00:00 23.2 44 Norte 61 Norte 0 1012.4 -0.6 63
2018-06-16 16:00:00 23.7 42 Norte 58 Norte 0 1012.4 -0.8 63
2018-06-16 15:00:00 23 41 Norte 58 Norte 0 1013 -0.7 66
2018-06-16 14:00:00 23.8 47 Norte 63 Norte 0 1013 -0.6 64
2018-06-16 13:00:00 23.5 34 Norte 55 Norte 0 1013.2 -0.2 63
2018-06-16 12:00:00 23.1 33 Norte 52 Norte 0 1013.7 0.5 64
2018-06-16 11:00:00 22 31 Norte 48 Norte 0 1013.6 0.9 63
2018-06-16 10:00:00 21.7 32 Norte 46 Norte 0 1013.4 1.1 64
2018-06-16 09:00:00 20.8 25 Norte 35 Norte 0 1013.2 0.9 71
2018-06-16 08:00:00 19.3 15 Norte 26 Norte 0 1012.7 0.4 77
2018-06-16 07:00:00 18.6 13 Norte 24 Norte 0 1012.3 -0.1 75
2018-06-16 06:00:00 18.5 16 Norte 22 Norte 0 1012.3 -0.3 73
2018-06-16 05:00:00 18.8 15 Norte 26 Norte 0 1012.3 -0.6 68
2018-06-16 04:00:00 19.1 15 Norte 28 Norte 0 1012.4 -1 67
2018-06-16 03:00:00 19.3 13 Norte 28 Norte 0 1012.6 -0.4 70
2018-06-16 02:00:00 19.7 19 Norte 33 Noroeste 0 1012.9 0 65
2018-06-16 01:00:00 19.9 18 Norte 35 Norte 0 1013.4 0.8 67
2018-06-16 00:00:00 20 17 Norte 42 Norte 0 1013 1.1 62